Maza, Argentina
Current Conditions -  °F | °C
As of 3:00 PM on Thursday 30 Oct 2014 (Local Time) from SAOC Reporting Station
Few Clouds Few Clouds  
Wind Chill: 26°   Ceiling: Unl
Heat Index: 26°   Visibility: 6mi
Dew Point:   Wind: 25mph
Humidity: 28%   Direction: 360°N
Pressure: 29.74"   Gusts: 37mph
Location:  36.83°S, 63.32°W
Report Text: SAOC 301800Z 36022G32KT 9999 FEW025FEW040CB 26/06 Q1007
Loading
Personal Weather Stations






























Interactive Weather Map
Tropical Storm Tracking
New forecast layout! Learn more

10-Day Weather Forecast

Advertisements
Track Severe Weather on mobile